createdAt,value
2018-11-11T00:00:24.028Z,77.78
2018-11-11T00:06:28.857Z,78.42
2018-11-11T00:12:33.580Z,78.54
2018-11-11T00:18:38.280Z,77.72
2018-11-11T00:24:42.964Z,77.68
2018-11-11T00:30:47.680Z,77.48
2018-11-11T00:36:52.423Z,76.62
2018-11-11T00:42:57.132Z,76.65
2018-11-11T00:49:01.915Z,77.14
2018-11-11T00:55:09.720Z,75.97
2018-11-11T01:01:14.446Z,76.54
2018-11-11T01:07:19.238Z,77.03
2018-11-11T01:13:24.511Z,76.54
2018-11-11T01:19:29.232Z,76.91
2018-11-11T01:25:33.935Z,77.04
2018-11-11T01:31:38.784Z,77.31
2018-11-11T01:37:44.074Z,76.53
2018-11-11T01:43:48.769Z,77.04
2018-11-11T01:49:53.930Z,76.89
2018-11-11T01:55:58.671Z,77.55
2018-11-11T02:02:03.401Z,78.39
2018-11-11T02:08:08.651Z,78.93
2018-11-11T02:14:13.375Z,77.98
2018-11-11T02:20:20.166Z,78.59
2018-11-11T02:26:25.330Z,79.89
2018-11-11T02:32:30.506Z,80.74
2018-11-11T02:38:35.301Z,81.51
2018-11-11T02:44:40.405Z,81.64
2018-11-11T02:50:45.331Z,81.96
2018-11-11T02:56:50.173Z,82.34
2018-11-11T03:02:55.554Z,82.52
2018-11-11T03:09:00.400Z,82.65
2018-11-11T03:15:05.939Z,82.87
2018-11-11T03:21:10.845Z,82.19
2018-11-11T03:27:16.556Z,82.82
2018-11-11T03:33:21.389Z,83.11
2018-11-11T03:39:26.215Z,83.39
2018-11-11T03:45:31.515Z,83.58
2018-11-11T03:51:36.297Z,83.63
2018-11-11T03:57:41.147Z,83.94
2018-11-11T04:03:45.854Z,83.22
2018-11-11T04:09:50.686Z,84.87
2018-11-11T04:15:55.706Z,85.30
2018-11-11T04:22:05.740Z,85.47
2018-11-11T04:28:11.038Z,86.05
2018-11-11T04:34:15.775Z,87.08
2018-11-11T04:40:20.803Z,87.67
2018-11-11T04:46:25.631Z,87.75
2018-11-11T04:52:30.313Z,87.85
2018-11-11T04:58:35.546Z,87.20
2018-11-11T05:04:40.302Z,87.79
2018-11-11T05:10:45.251Z,87.89
2018-11-11T05:16:50.048Z,88.00
2018-11-11T05:22:55.066Z,87.17
2018-11-11T05:28:59.727Z,88.00
2018-11-11T05:35:04.456Z,88.83
2018-11-11T05:41:09.142Z,89.29
2018-11-11T05:47:14.645Z,89.28
2018-11-11T05:53:19.349Z,89.45
2018-11-11T05:59:24.138Z,89.41
2018-11-11T06:05:28.856Z,88.74
2018-11-11T06:11:33.820Z,87.96
2018-11-11T06:17:39.377Z,87.48
2018-11-11T06:23:44.101Z,87.63
2018-11-11T06:29:48.836Z,87.54
2018-11-11T06:35:53.674Z,87.83
2018-11-11T06:41:58.535Z,87.03
2018-11-11T06:48:03.291Z,87.86
2018-11-11T06:54:08.421Z,86.20
2018-11-11T07:00:15.691Z,87.31
2018-11-11T07:06:21.129Z,86.03
2018-11-11T07:12:26.016Z,84.73
2018-11-11T07:18:31.072Z,84.57
2018-11-11T07:24:35.957Z,84.13
2018-11-11T07:30:40.635Z,82.69
2018-11-11T07:36:45.410Z,83.38
2018-11-11T07:42:50.104Z,83.04
2018-11-11T07:48:55.287Z,83.21
2018-11-11T07:55:00.431Z,83.41
2018-11-11T08:01:05.341Z,83.57
2018-11-11T08:07:10.222Z,84.25
2018-11-11T08:13:15.469Z,83.72
2018-11-11T08:19:20.691Z,84.82
2018-11-11T08:25:25.657Z,84.65
2018-11-11T08:31:30.749Z,85.77
2018-11-11T08:37:35.734Z,85.30
2018-11-11T08:43:40.438Z,84.42
2018-11-11T08:49:45.133Z,85.65
2018-11-11T08:55:50.286Z,84.80
2018-11-11T09:01:55.424Z,84.39
2018-11-11T09:08:00.622Z,84.44
2018-11-11T09:14:05.594Z,84.21
2018-11-11T09:20:11.197Z,84.37
2018-11-11T09:26:16.080Z,83.10
2018-11-11T09:32:20.805Z,82.51
2018-11-11T09:38:25.948Z,82.40
2018-11-11T09:44:30.678Z,81.66
2018-11-11T09:50:35.576Z,81.00
2018-11-11T09:56:40.330Z,79.55
2018-11-11T10:02:48.935Z,77.59
2018-11-11T10:08:59.327Z,75.85
2018-11-11T10:15:09.464Z,76.00
2018-11-11T10:21:21.919Z,76.35
2018-11-11T10:27:31.926Z,75.11
2018-11-11T10:34:42.424Z,74.53
2018-11-11T10:40:50.398Z,73.76
2018-11-11T10:47:04.752Z,75.08
2018-11-11T10:53:09.984Z,73.60
2018-11-11T10:59:14.813Z,71.51
2018-11-11T11:05:19.824Z,70.14
2018-11-11T11:11:24.919Z,68.22
2018-11-11T11:17:30.002Z,66.35
2018-11-11T11:23:35.629Z,66.44
2018-11-11T11:29:41.664Z,66.79
2018-11-11T11:35:46.839Z,67.04
2018-11-11T11:41:58.275Z,68.02
2018-11-11T11:48:03.218Z,67.35
2018-11-11T11:54:08.389Z,67.75
2018-11-11T12:00:14.399Z,66.87
2018-11-11T12:06:19.474Z,66.32
2018-11-11T12:12:24.537Z,65.44
2018-11-11T12:18:29.686Z,64.95
2018-11-11T12:24:34.727Z,63.66
2018-11-11T12:30:40.770Z,63.10
2018-11-11T12:36:45.715Z,65.05
2018-11-11T12:42:51.032Z,64.13
2018-11-11T12:48:56.169Z,64.54
2018-11-11T12:55:01.309Z,65.68
2018-11-11T13:01:07.186Z,66.37
2018-11-11T13:07:12.307Z,66.68
2018-11-11T13:13:17.436Z,65.60
2018-11-11T13:19:22.534Z,66.50
2018-11-11T13:25:27.619Z,66.20
2018-11-11T13:31:33.688Z,65.43
2018-11-11T13:37:38.975Z,65.38
2018-11-11T13:43:44.090Z,64.90
2018-11-11T13:49:49.224Z,65.33
2018-11-11T13:55:54.278Z,64.51
2018-11-11T14:01:59.369Z,62.87
2018-11-11T14:08:04.546Z,63.13
2018-11-11T14:14:09.922Z,63.76
2018-11-11T14:20:16.382Z,64.46
2018-11-11T14:26:21.566Z,65.76
2018-11-11T14:32:26.827Z,64.64
2018-11-11T14:38:31.997Z,65.25
2018-11-11T14:44:37.178Z,66.84
2018-11-11T14:50:43.969Z,66.62
2018-11-11T14:56:48.999Z,67.79
2018-11-11T15:03:01.507Z,68.88
2018-11-11T15:09:11.828Z,69.52
2018-11-11T15:15:19.472Z,71.55
2018-11-11T15:21:24.557Z,72.47
2018-11-11T15:27:29.796Z,73.52
2018-11-11T15:33:34.808Z,74.52
2018-11-11T15:39:39.968Z,75.09
2018-11-11T15:45:44.955Z,75.08
2018-11-11T15:51:49.862Z,76.16
2018-11-11T15:57:54.928Z,76.53
2018-11-11T16:04:00.216Z,76.35
2018-11-11T16:10:05.575Z,77.14
2018-11-11T16:16:11.031Z,77.13
2018-11-11T16:22:16.487Z,77.56
2018-11-11T16:28:21.453Z,77.77
2018-11-11T16:34:26.447Z,78.02
2018-11-11T16:40:33.874Z,78.55
2018-11-11T16:46:38.886Z,79.75
2018-11-11T16:52:44.612Z,81.14
2018-11-11T16:58:49.868Z,82.01
2018-11-11T17:04:55.782Z,82.84
2018-11-11T17:11:00.727Z,82.08
2018-11-11T17:17:05.822Z,82.18
2018-11-11T17:23:10.478Z,82.44
2018-11-11T17:29:15.335Z,83.17
2018-11-11T17:35:20.097Z,83.38
2018-11-11T17:41:26.481Z,82.91
2018-11-11T17:47:31.834Z,83.33
2018-11-11T17:53:36.844Z,83.19
2018-11-11T17:59:41.876Z,83.45
2018-11-11T18:05:47.324Z,84.04
2018-11-11T18:11:52.258Z,84.31
2018-11-11T18:17:57.433Z,83.34
2018-11-11T18:24:02.167Z,84.25
2018-11-11T18:30:16.373Z,82.80
2018-11-11T18:36:22.094Z,82.89
2018-11-11T18:42:27.187Z,82.91
2018-11-11T18:48:32.145Z,83.35
2018-11-11T18:54:37.142Z,83.90
2018-11-11T19:00:43.006Z,83.79
2018-11-11T19:06:48.894Z,83.63
2018-11-11T19:12:55.451Z,82.91
2018-11-11T19:19:00.466Z,82.44
2018-11-11T19:25:05.889Z,82.15
2018-11-11T19:31:11.536Z,81.33
2018-11-11T19:37:16.537Z,80.75
2018-11-11T19:43:21.486Z,81.67
2018-11-11T19:49:26.507Z,82.70
2018-11-11T19:55:31.493Z,83.23
2018-11-11T20:01:36.617Z,83.79
2018-11-11T20:07:42.908Z,83.84
2018-11-11T20:13:47.868Z,84.32
2018-11-11T20:19:52.872Z,83.19
2018-11-11T20:25:57.816Z,84.04
2018-11-11T20:34:35.692Z,85.09
2018-11-11T20:40:40.484Z,84.80
2018-11-11T20:46:45.204Z,85.07
2018-11-11T20:52:51.772Z,85.08
2018-11-11T20:58:56.809Z,85.65
2018-11-11T21:05:01.466Z,85.84
2018-11-11T21:11:06.668Z,87.45
2018-11-11T21:17:11.379Z,87.13
2018-11-11T21:23:16.003Z,87.65
2018-11-11T21:29:20.735Z,87.58
2018-11-11T21:35:25.800Z,88.28
2018-11-11T21:41:30.561Z,88.94
2018-11-11T21:47:35.817Z,88.64
2018-11-11T21:53:41.627Z,89.20
2018-11-11T21:59:47.160Z,89.32
2018-11-11T22:05:52.714Z,88.99
2018-11-11T22:11:57.464Z,88.98
2018-11-11T22:18:02.881Z,89.36
2018-11-11T22:24:07.976Z,89.70
2018-11-11T22:30:13.043Z,89.76
2018-11-11T22:36:18.042Z,88.77
2018-11-11T22:42:22.963Z,89.08
2018-11-11T22:48:27.948Z,89.69
2018-11-11T22:54:33.070Z,89.85
2018-11-11T23:00:37.988Z,90.72
2018-11-11T23:06:42.816Z,90.90
2018-11-11T23:12:47.673Z,90.61
2018-11-11T23:18:52.544Z,90.88
2018-11-11T23:24:57.404Z,90.65
2018-11-11T23:31:02.162Z,90.43
2018-11-11T23:37:07.045Z,90.27
2018-11-11T23:43:12.565Z,90.64
2018-11-11T23:49:17.236Z,91.21
2018-11-11T23:55:22.351Z,91.16
